sensor_id;sensor_type;location;lat;lon;timestamp;P1;durP1;ratioP1;P2;durP2;ratioP2
51475;SDS011;37554;50.362;7.568;2022-11-15T00:01:33;6.30;;;2.60;;
51475;SDS011;37554;50.362;7.568;2022-11-15T00:03:59;3.58;;;2.30;;
51475;SDS011;37554;50.362;7.568;2022-11-15T00:06:24;3.97;;;2.42;;
51475;SDS011;37554;50.362;7.568;2022-11-15T00:08:50;7.03;;;2.97;;
51475;SDS011;37554;50.362;7.568;2022-11-15T00:11:16;3.50;;;2.40;;
51475;SDS011;37554;50.362;7.568;2022-11-15T00:13:41;3.63;;;2.60;;
51475;SDS011;37554;50.362;7.568;2022-11-15T00:16:08;5.28;;;2.60;;
51475;SDS011;37554;50.362;7.568;2022-11-15T00:18:34;4.10;;;2.63;;
51475;SDS011;37554;50.362;7.568;2022-11-15T00:21:04;4.25;;;2.60;;
51475;SDS011;37554;50.362;7.568;2022-11-15T00:23:33;4.90;;;2.40;;
51475;SDS011;37554;50.362;7.568;2022-11-15T00:25:59;3.55;;;2.83;;
51475;SDS011;37554;50.362;7.568;2022-11-15T00:28:25;3.30;;;2.80;;
51475;SDS011;37554;50.362;7.568;2022-11-15T00:30:51;3.20;;;2.40;;
51475;SDS011;37554;50.362;7.568;2022-11-15T00:33:17;4.47;;;2.72;;
51475;SDS011;37554;50.362;7.568;2022-11-15T00:35:42;6.93;;;3.08;;
51475;SDS011;37554;50.362;7.568;2022-11-15T00:38:08;3.42;;;2.50;;
51475;SDS011;37554;50.362;7.568;2022-11-15T00:40:33;3.72;;;2.85;;
51475;SDS011;37554;50.362;7.568;2022-11-15T00:42:59;3.90;;;2.53;;
51475;SDS011;37554;50.362;7.568;2022-11-15T00:45:25;2.80;;;2.45;;
51475;SDS011;37554;50.362;7.568;2022-11-15T00:47:51;3.15;;;2.38;;
51475;SDS011;37554;50.362;7.568;2022-11-15T00:50:16;3.45;;;2.55;;
51475;SDS011;37554;50.362;7.568;2022-11-15T00:52:42;5.65;;;2.83;;
51475;SDS011;37554;50.362;7.568;2022-11-15T00:55:12;4.28;;;2.90;;
51475;SDS011;37554;50.362;7.568;2022-11-15T00:57:42;4.50;;;2.40;;
51475;SDS011;37554;50.362;7.568;2022-11-15T01:00:08;3.60;;;2.63;;
51475;SDS011;37554;50.362;7.568;2022-11-15T01:02:34;2.90;;;2.60;;
51475;SDS011;37554;50.362;7.568;2022-11-15T01:05:00;3.00;;;2.47;;
51475;SDS011;37554;50.362;7.568;2022-11-15T01:07:25;3.28;;;2.47;;
51475;SDS011;37554;50.362;7.568;2022-11-15T01:09:51;3.60;;;2.60;;
51475;SDS011;37554;50.362;7.568;2022-11-15T01:12:17;3.92;;;2.72;;
51475;SDS011;37554;50.362;7.568;2022-11-15T01:14:42;3.55;;;2.42;;
51475;SDS011;37554;50.362;7.568;2022-11-15T01:17:08;3.75;;;2.40;;
51475;SDS011;37554;50.362;7.568;2022-11-15T01:19:33;3.78;;;2.30;;
51475;SDS011;37554;50.362;7.568;2022-11-15T01:21:59;2.88;;;2.25;;
51475;SDS011;37554;50.362;7.568;2022-11-15T01:24:25;3.20;;;2.45;;
51475;SDS011;37554;50.362;7.568;2022-11-15T01:26:50;3.10;;;2.22;;
51475;SDS011;37554;50.362;7.568;2022-11-15T01:29:16;2.97;;;2.53;;
51475;SDS011;37554;50.362;7.568;2022-11-15T01:31:42;4.30;;;2.67;;
51475;SDS011;37554;50.362;7.568;2022-11-15T01:34:07;2.92;;;2.25;;
51475;SDS011;37554;50.362;7.568;2022-11-15T01:36:33;3.08;;;2.78;;
51475;SDS011;37554;50.362;7.568;2022-11-15T01:38:59;3.35;;;2.30;;
51475;SDS011;37554;50.362;7.568;2022-11-15T01:41:29;3.55;;;2.47;;
51475;SDS011;37554;50.362;7.568;2022-11-15T01:43:57;2.90;;;2.40;;
51475;SDS011;37554;50.362;7.568;2022-11-15T01:46:41;3.85;;;2.80;;
51475;SDS011;37554;50.362;7.568;2022-11-15T01:49:13;3.55;;;2.60;;
51475;SDS011;37554;50.362;7.568;2022-11-15T01:51:42;3.17;;;2.20;;
51475;SDS011;37554;50.362;7.568;2022-11-15T01:54:08;2.90;;;2.38;;
51475;SDS011;37554;50.362;7.568;2022-11-15T01:56:40;2.97;;;2.20;;
51475;SDS011;37554;50.362;7.568;2022-11-15T01:59:09;3.85;;;2.83;;
51475;SDS011;37554;50.362;7.568;2022-11-15T02:01:36;2.58;;;2.33;;
51475;SDS011;37554;50.362;7.568;2022-11-15T02:04:07;3.03;;;2.40;;
51475;SDS011;37554;50.362;7.568;2022-11-15T02:06:37;2.97;;;2.50;;
51475;SDS011;37554;50.362;7.568;2022-11-15T02:09:04;2.95;;;2.55;;
51475;SDS011;37554;50.362;7.568;2022-11-15T02:11:29;2.85;;;2.40;;
51475;SDS011;37554;50.362;7.568;2022-11-15T02:13:56;3.88;;;2.20;;
51475;SDS011;37554;50.362;7.568;2022-11-15T02:16:29;2.88;;;2.58;;
51475;SDS011;37554;50.362;7.568;2022-11-15T02:21:36;2.80;;;2.22;;
51475;SDS011;37554;50.362;7.568;2022-11-15T02:24:23;3.83;;;2.30;;
51475;SDS011;37554;50.362;7.568;2022-11-15T02:38:47;2.53;;;2.22;;
51475;SDS011;37554;50.362;7.568;2022-11-15T02:41:30;3.17;;;2.45;;
51475;SDS011;37554;50.362;7.568;2022-11-15T02:44:24;2.22;;;2.03;;
51475;SDS011;37554;50.362;7.568;2022-11-15T02:46:58;4.03;;;2.30;;
51475;SDS011;37554;50.362;7.568;2022-11-15T02:49:37;3.28;;;2.38;;
51475;SDS011;37554;50.362;7.568;2022-11-15T02:52:19;2.65;;;2.03;;
51475;SDS011;37554;50.362;7.568;2022-11-15T02:54:53;2.55;;;2.03;;
51475;SDS011;37554;50.362;7.568;2022-11-15T02:57:22;2.40;;;2.10;;
51475;SDS011;37554;50.362;7.568;2022-11-15T03:00:10;2.50;;;2.30;;
51475;SDS011;37554;50.362;7.568;2022-11-15T03:05:25;2.33;;;2.13;;
51475;SDS011;37554;50.362;7.568;2022-11-15T03:08:18;2.10;;;1.90;;
51475;SDS011;37554;50.362;7.568;2022-11-15T03:13:42;3.85;;;2.00;;
51475;SDS011;37554;50.362;7.568;2022-11-15T03:19:04;2.13;;;1.90;;
51475;SDS011;37554;50.362;7.568;2022-11-15T03:21:41;1.83;;;1.67;;
51475;SDS011;37554;50.362;7.568;2022-11-15T03:24:08;2.78;;;2.13;;
51475;SDS011;37554;50.362;7.568;2022-11-15T03:26:35;2.28;;;2.08;;
51475;SDS011;37554;50.362;7.568;2022-11-15T03:29:04;1.92;;;1.60;;
51475;SDS011;37554;50.362;7.568;2022-11-15T03:31:37;2.10;;;1.90;;
51475;SDS011;37554;50.362;7.568;2022-11-15T03:34:23;1.83;;;1.73;;
51475;SDS011;37554;50.362;7.568;2022-11-15T03:36:51;2.75;;;1.80;;
51475;SDS011;37554;50.362;7.568;2022-11-15T03:39:17;2.45;;;2.00;;
51475;SDS011;37554;50.362;7.568;2022-11-15T03:42:04;2.30;;;2.00;;
51475;SDS011;37554;50.362;7.568;2022-11-15T03:47:02;2.50;;;1.73;;
51475;SDS011;37554;50.362;7.568;2022-11-15T03:49:32;2.70;;;1.63;;
51475;SDS011;37554;50.362;7.568;2022-11-15T03:52:00;3.35;;;2.10;;
51475;SDS011;37554;50.362;7.568;2022-11-15T03:54:28;1.60;;;1.50;;
51475;SDS011;37554;50.362;7.568;2022-11-15T03:56:54;3.55;;;1.80;;
51475;SDS011;37554;50.362;7.568;2022-11-15T03:59:20;2.35;;;1.60;;
51475;SDS011;37554;50.362;7.568;2022-11-15T04:01:45;1.80;;;1.70;;
51475;SDS011;37554;50.362;7.568;2022-11-15T04:04:11;1.83;;;1.70;;
51475;SDS011;37554;50.362;7.568;2022-11-15T04:06:37;2.22;;;2.03;;
51475;SDS011;37554;50.362;7.568;2022-11-15T04:09:03;2.17;;;1.98;;
51475;SDS011;37554;50.362;7.568;2022-11-15T04:11:28;2.17;;;1.80;;
51475;SDS011;37554;50.362;7.568;2022-11-15T04:13:54;1.48;;;1.38;;
51475;SDS011;37554;50.362;7.568;2022-11-15T04:16:20;2.00;;;1.80;;
51475;SDS011;37554;50.362;7.568;2022-11-15T04:18:45;2.50;;;2.00;;
51475;SDS011;37554;50.362;7.568;2022-11-15T04:21:31;1.98;;;1.77;;
51475;SDS011;37554;50.362;7.568;2022-11-15T04:24:15;1.50;;;1.25;;
51475;SDS011;37554;50.362;7.568;2022-11-15T04:26:40;2.42;;;1.67;;
51475;SDS011;37554;50.362;7.568;2022-11-15T04:29:06;3.80;;;1.42;;
51475;SDS011;37554;50.362;7.568;2022-11-15T04:31:55;2.83;;;1.70;;
51475;SDS011;37554;50.362;7.568;2022-11-15T04:34:20;1.85;;;1.67;;
51475;SDS011;37554;50.362;7.568;2022-11-15T04:36:46;1.80;;;1.70;;
51475;SDS011;37554;50.362;7.568;2022-11-15T04:39:31;1.67;;;1.52;;
51475;SDS011;37554;50.362;7.568;2022-11-15T04:41:56;1.73;;;1.38;;
51475;SDS011;37554;50.362;7.568;2022-11-15T04:44:22;1.80;;;1.70;;
51475;SDS011;37554;50.362;7.568;2022-11-15T04:46:47;2.00;;;1.63;;
51475;SDS011;37554;50.362;7.568;2022-11-15T04:49:13;1.42;;;1.30;;
51475;SDS011;37554;50.362;7.568;2022-11-15T04:51:38;1.60;;;1.50;;
51475;SDS011;37554;50.362;7.568;2022-11-15T04:54:04;1.80;;;1.60;;
51475;SDS011;37554;50.362;7.568;2022-11-15T04:56:30;3.65;;;1.80;;
51475;SDS011;37554;50.362;7.568;2022-11-15T04:58:55;5.32;;;1.50;;
51475;SDS011;37554;50.362;7.568;2022-11-15T05:01:21;2.13;;;1.80;;
51475;SDS011;37554;50.362;7.568;2022-11-15T05:03:46;1.88;;;1.45;;
51475;SDS011;37554;50.362;7.568;2022-11-15T05:06:30;1.60;;;1.50;;
51475;SDS011;37554;50.362;7.568;2022-11-15T05:08:56;1.77;;;1.52;;
51475;SDS011;37554;50.362;7.568;2022-11-15T05:11:22;2.17;;;1.50;;
51475;SDS011;37554;50.362;7.568;2022-11-15T05:13:48;1.70;;;1.50;;
51475;SDS011;37554;50.362;7.568;2022-11-15T05:16:14;2.47;;;1.77;;
51475;SDS011;37554;50.362;7.568;2022-11-15T05:18:40;1.45;;;1.35;;
51475;SDS011;37554;50.362;7.568;2022-11-15T05:21:10;1.30;;;1.20;;
51475;SDS011;37554;50.362;7.568;2022-11-15T05:23:38;1.50;;;1.33;;
51475;SDS011;37554;50.362;7.568;2022-11-15T05:26:05;1.50;;;1.40;;
51475;SDS011;37554;50.362;7.568;2022-11-15T05:28:32;1.83;;;1.27;;
51475;SDS011;37554;50.362;7.568;2022-11-15T05:31:05;1.60;;;1.50;;
51475;SDS011;37554;50.362;7.568;2022-11-15T05:33:33;1.80;;;1.23;;
51475;SDS011;37554;50.362;7.568;2022-11-15T05:36:02;1.73;;;1.10;;
51475;SDS011;37554;50.362;7.568;2022-11-15T05:38:31;1.63;;;1.40;;
51475;SDS011;37554;50.362;7.568;2022-11-15T05:40:57;1.50;;;1.40;;
51475;SDS011;37554;50.362;7.568;2022-11-15T05:43:24;1.80;;;1.08;;
51475;SDS011;37554;50.362;7.568;2022-11-15T05:45:49;1.40;;;1.30;;
51475;SDS011;37554;50.362;7.568;2022-11-15T05:48:15;1.60;;;1.20;;
51475;SDS011;37554;50.362;7.568;2022-11-15T05:50:41;1.60;;;1.30;;
51475;SDS011;37554;50.362;7.568;2022-11-15T05:53:10;1.70;;;1.15;;
51475;SDS011;37554;50.362;7.568;2022-11-15T05:55:39;1.55;;;1.25;;
51475;SDS011;37554;50.362;7.568;2022-11-15T05:58:05;1.33;;;1.05;;
51475;SDS011;37554;50.362;7.568;2022-11-15T06:00:31;1.50;;;1.10;;
51475;SDS011;37554;50.362;7.568;2022-11-15T06:02:57;1.65;;;1.20;;
51475;SDS011;37554;50.362;7.568;2022-11-15T06:05:23;1.30;;;1.20;;
51475;SDS011;37554;50.362;7.568;2022-11-15T06:07:48;1.15;;;1.05;;
51475;SDS011;37554;50.362;7.568;2022-11-15T06:10:14;2.17;;;1.50;;
51475;SDS011;37554;50.362;7.568;2022-11-15T06:12:39;1.88;;;1.52;;
51475;SDS011;37554;50.362;7.568;2022-11-15T06:15:05;2.08;;;1.20;;
51475;SDS011;37554;50.362;7.568;2022-11-15T06:17:31;8.02;;;2.17;;
51475;SDS011;37554;50.362;7.568;2022-11-15T06:19:57;1.50;;;1.40;;
51475;SDS011;37554;50.362;7.568;2022-11-15T06:22:22;1.27;;;1.17;;
51475;SDS011;37554;50.362;7.568;2022-11-15T06:24:48;1.27;;;1.17;;
51475;SDS011;37554;50.362;7.568;2022-11-15T06:27:13;1.42;;;1.10;;
51475;SDS011;37554;50.362;7.568;2022-11-15T06:29:39;1.50;;;1.00;;
51475;SDS011;37554;50.362;7.568;2022-11-15T06:32:05;1.02;;;1.00;;
51475;SDS011;37554;50.362;7.568;2022-11-15T06:34:30;3.20;;;1.00;;
51475;SDS011;37554;50.362;7.568;2022-11-15T06:36:56;5.30;;;1.38;;
51475;SDS011;37554;50.362;7.568;2022-11-15T06:39:21;5.00;;;1.60;;
51475;SDS011;37554;50.362;7.568;2022-11-15T06:41:47;4.15;;;1.83;;
51475;SDS011;37554;50.362;7.568;2022-11-15T06:44:12;4.50;;;2.35;;
51475;SDS011;37554;50.362;7.568;2022-11-15T06:46:38;5.30;;;1.85;;
51475;SDS011;37554;50.362;7.568;2022-11-15T06:49:04;3.22;;;1.73;;
51475;SDS011;37554;50.362;7.568;2022-11-15T06:51:29;6.85;;;1.60;;
51475;SDS011;37554;50.362;7.568;2022-11-15T06:53:55;3.38;;;1.83;;
51475;SDS011;37554;50.362;7.568;2022-11-15T06:56:20;4.68;;;1.85;;
51475;SDS011;37554;50.362;7.568;2022-11-15T06:58:46;3.05;;;1.50;;
51475;SDS011;37554;50.362;7.568;2022-11-15T07:01:11;2.95;;;1.60;;
51475;SDS011;37554;50.362;7.568;2022-11-15T07:03:38;4.65;;;2.10;;
51475;SDS011;37554;50.362;7.568;2022-11-15T07:06:05;3.92;;;1.42;;
51475;SDS011;37554;50.362;7.568;2022-11-15T07:08:32;2.47;;;1.75;;
51475;SDS011;37554;50.362;7.568;2022-11-15T07:10:58;3.58;;;1.58;;
51475;SDS011;37554;50.362;7.568;2022-11-15T07:13:25;2.22;;;1.35;;
51475;SDS011;37554;50.362;7.568;2022-11-15T07:15:52;5.50;;;1.75;;
51475;SDS011;37554;50.362;7.568;2022-11-15T07:18:17;3.22;;;1.45;;
51475;SDS011;37554;50.362;7.568;2022-11-15T07:20:43;6.13;;;2.30;;
51475;SDS011;37554;50.362;7.568;2022-11-15T07:23:09;5.40;;;2.75;;
51475;SDS011;37554;50.362;7.568;2022-11-15T07:25:35;7.53;;;2.28;;
51475;SDS011;37554;50.362;7.568;2022-11-15T07:28:00;4.25;;;2.17;;
51475;SDS011;37554;50.362;7.568;2022-11-15T07:30:27;5.50;;;2.33;;
51475;SDS011;37554;50.362;7.568;2022-11-15T07:32:56;6.22;;;1.90;;
51475;SDS011;37554;50.362;7.568;2022-11-15T07:35:23;3.97;;;1.52;;
51475;SDS011;37554;50.362;7.568;2022-11-15T07:37:53;2.92;;;1.67;;
51475;SDS011;37554;50.362;7.568;2022-11-15T07:40:20;3.15;;;1.60;;
51475;SDS011;37554;50.362;7.568;2022-11-15T07:42:45;4.00;;;1.77;;
51475;SDS011;37554;50.362;7.568;2022-11-15T07:45:21;2.05;;;1.58;;
51475;SDS011;37554;50.362;7.568;2022-11-15T07:47:49;6.20;;;1.48;;
51475;SDS011;37554;50.362;7.568;2022-11-15T07:50:15;3.78;;;1.55;;
51475;SDS011;37554;50.362;7.568;2022-11-15T07:52:41;3.55;;;1.52;;
51475;SDS011;37554;50.362;7.568;2022-11-15T07:55:07;2.45;;;1.80;;
51475;SDS011;37554;50.362;7.568;2022-11-15T07:57:33;5.38;;;1.90;;
51475;SDS011;37554;50.362;7.568;2022-11-15T07:59:59;3.05;;;1.40;;
51475;SDS011;37554;50.362;7.568;2022-11-15T08:02:24;2.72;;;1.58;;
51475;SDS011;37554;50.362;7.568;2022-11-15T08:04:50;2.80;;;1.63;;
51475;SDS011;37554;50.362;7.568;2022-11-15T08:07:15;2.78;;;1.33;;
51475;SDS011;37554;50.362;7.568;2022-11-15T08:09:41;2.88;;;1.50;;
51475;SDS011;37554;50.362;7.568;2022-11-15T08:12:07;5.47;;;1.63;;
51475;SDS011;37554;50.362;7.568;2022-11-15T08:14:32;2.20;;;1.58;;
51475;SDS011;37554;50.362;7.568;2022-11-15T08:16:59;3.33;;;1.67;;
51475;SDS011;37554;50.362;7.568;2022-11-15T08:19:25;6.07;;;1.65;;
51475;SDS011;37554;50.362;7.568;2022-11-15T08:21:50;2.38;;;1.40;;
51475;SDS011;37554;50.362;7.568;2022-11-15T08:24:16;2.85;;;1.50;;
51475;SDS011;37554;50.362;7.568;2022-11-15T08:26:41;6.00;;;1.77;;
51475;SDS011;37554;50.362;7.568;2022-11-15T08:29:07;5.80;;;1.65;;
51475;SDS011;37554;50.362;7.568;2022-11-15T08:31:33;7.65;;;1.55;;
51475;SDS011;37554;50.362;7.568;2022-11-15T08:34:01;4.85;;;1.75;;
51475;SDS011;37554;50.362;7.568;2022-11-15T08:36:30;7.03;;;1.50;;
51475;SDS011;37554;50.362;7.568;2022-11-15T08:38:56;4.07;;;1.60;;
51475;SDS011;37554;50.362;7.568;2022-11-15T08:41:26;3.67;;;2.10;;
51475;SDS011;37554;50.362;7.568;2022-11-15T08:43:52;2.40;;;1.48;;
51475;SDS011;37554;50.362;7.568;2022-11-15T08:46:18;4.45;;;1.42;;
51475;SDS011;37554;50.362;7.568;2022-11-15T08:48:44;2.58;;;1.33;;
51475;SDS011;37554;50.362;7.568;2022-11-15T08:51:09;4.35;;;1.80;;
51475;SDS011;37554;50.362;7.568;2022-11-15T08:53:35;4.30;;;1.35;;
51475;SDS011;37554;50.362;7.568;2022-11-15T08:56:01;2.85;;;1.45;;
51475;SDS011;37554;50.362;7.568;2022-11-15T08:58:27;2.70;;;1.33;;
51475;SDS011;37554;50.362;7.568;2022-11-15T09:00:53;5.75;;;1.50;;
51475;SDS011;37554;50.362;7.568;2022-11-15T09:03:18;4.35;;;1.45;;
51475;SDS011;37554;50.362;7.568;2022-11-15T09:05:44;2.13;;;1.15;;
51475;SDS011;37554;50.362;7.568;2022-11-15T09:08:09;3.72;;;1.38;;
51475;SDS011;37554;50.362;7.568;2022-11-15T09:10:37;2.42;;;1.25;;
51475;SDS011;37554;50.362;7.568;2022-11-15T09:13:03;2.22;;;1.23;;
51475;SDS011;37554;50.362;7.568;2022-11-15T09:15:29;2.13;;;1.52;;
51475;SDS011;37554;50.362;7.568;2022-11-15T09:17:57;3.78;;;1.30;;
51475;SDS011;37554;50.362;7.568;2022-11-15T09:20:24;1.70;;;1.40;;
51475;SDS011;37554;50.362;7.568;2022-11-15T09:22:50;2.55;;;1.15;;
51475;SDS011;37554;50.362;7.568;2022-11-15T09:25:15;3.03;;;1.40;;
51475;SDS011;37554;50.362;7.568;2022-11-15T09:27:41;1.55;;;1.17;;
51475;SDS011;37554;50.362;7.568;2022-11-15T09:30:06;2.90;;;1.48;;
51475;SDS011;37554;50.362;7.568;2022-11-15T09:32:32;3.28;;;1.40;;
51475;SDS011;37554;50.362;7.568;2022-11-15T09:34:58;1.83;;;1.40;;
51475;SDS011;37554;50.362;7.568;2022-11-15T09:37:23;2.30;;;1.30;;
51475;SDS011;37554;50.362;7.568;2022-11-15T09:39:49;2.50;;;1.38;;
51475;SDS011;37554;50.362;7.568;2022-11-15T09:45:17;4.28;;;1.83;;
51475;SDS011;37554;50.362;7.568;2022-11-15T09:51:06;2.42;;;1.50;;
51475;SDS011;37554;50.362;7.568;2022-11-15T09:53:14;4.65;;;1.90;;
51475;SDS011;37554;50.362;7.568;2022-11-15T09:55:59;4.13;;;1.52;;
51475;SDS011;37554;50.362;7.568;2022-11-15T09:58:33;3.03;;;1.83;;
51475;SDS011;37554;50.362;7.568;2022-11-15T10:01:33;2.20;;;1.25;;
51475;SDS011;37554;50.362;7.568;2022-11-15T10:04:19;2.53;;;1.65;;
51475;SDS011;37554;50.362;7.568;2022-11-15T10:06:52;3.58;;;1.58;;
51475;SDS011;37554;50.362;7.568;2022-11-15T10:09:26;4.32;;;2.10;;
51475;SDS011;37554;50.362;7.568;2022-11-15T10:11:59;3.85;;;2.25;;
51475;SDS011;37554;50.362;7.568;2022-11-15T10:14:25;5.53;;;1.80;;
51475;SDS011;37554;50.362;7.568;2022-11-15T10:22:41;4.78;;;2.05;;
51475;SDS011;37554;50.362;7.568;2022-11-15T10:25:20;4.40;;;1.65;;
51475;SDS011;37554;50.362;7.568;2022-11-15T10:27:55;3.60;;;2.20;;
51475;SDS011;37554;50.362;7.568;2022-11-15T10:30:45;6.82;;;1.80;;
51475;SDS011;37554;50.362;7.568;2022-11-15T10:33:16;4.68;;;1.95;;
51475;SDS011;37554;50.362;7.568;2022-11-15T10:46:32;2.70;;;1.60;;
51475;SDS011;37554;50.362;7.568;2022-11-15T10:49:32;5.45;;;1.63;;
51475;SDS011;37554;50.362;7.568;2022-11-15T10:51:54;3.55;;;1.70;;
51475;SDS011;37554;50.362;7.568;2022-11-15T10:54:38;3.65;;;1.73;;
51475;SDS011;37554;50.362;7.568;2022-11-15T10:57:36;3.05;;;1.55;;
51475;SDS011;37554;50.362;7.568;2022-11-15T11:00:12;2.38;;;1.42;;
51475;SDS011;37554;50.362;7.568;2022-11-15T11:10:36;2.08;;;1.35;;
51475;SDS011;37554;50.362;7.568;2022-11-15T11:13:12;2.17;;;1.30;;
51475;SDS011;37554;50.362;7.568;2022-11-15T11:15:52;3.25;;;1.63;;
51475;SDS011;37554;50.362;7.568;2022-11-15T11:18:33;3.17;;;1.65;;
51475;SDS011;37554;50.362;7.568;2022-11-15T11:21:21;1.45;;;1.08;;
51475;SDS011;37554;50.362;7.568;2022-11-15T11:24:18;3.08;;;1.10;;
51475;SDS011;37554;50.362;7.568;2022-11-15T11:32:43;1.70;;;1.20;;
51475;SDS011;37554;50.362;7.568;2022-11-15T12:00:56;4.05;;;1.27;;
51475;SDS011;37554;50.362;7.568;2022-11-15T12:03:35;2.07;;;1.03;;
51475;SDS011;37554;50.362;7.568;2022-11-15T12:06:50;2.03;;;1.05;;
51475;SDS011;37554;50.362;7.568;2022-11-15T12:14:29;2.05;;;1.15;;
51475;SDS011;37554;50.362;7.568;2022-11-15T12:17:00;1.38;;;1.17;;
51475;SDS011;37554;50.362;7.568;2022-11-15T12:19:26;1.20;;;0.93;;
51475;SDS011;37554;50.362;7.568;2022-11-15T12:22:03;2.17;;;1.00;;
51475;SDS011;37554;50.362;7.568;2022-11-15T12:27:44;1.35;;;1.00;;
51475;SDS011;37554;50.362;7.568;2022-11-15T12:30:17;2.53;;;1.15;;
51475;SDS011;37554;50.362;7.568;2022-11-15T12:32:55;2.15;;;1.10;;
51475;SDS011;37554;50.362;7.568;2022-11-15T12:35:25;0.88;;;0.68;;
51475;SDS011;37554;50.362;7.568;2022-11-15T12:37:52;1.67;;;1.08;;
51475;SDS011;37554;50.362;7.568;2022-11-15T12:43:35;1.73;;;1.05;;
51475;SDS011;37554;50.362;7.568;2022-11-15T12:46:05;1.83;;;1.00;;
51475;SDS011;37554;50.362;7.568;2022-11-15T12:51:02;3.20;;;0.85;;
51475;SDS011;37554;50.362;7.568;2022-11-15T12:53:29;1.95;;;1.00;;
51475;SDS011;37554;50.362;7.568;2022-11-15T12:58:38;1.45;;;1.00;;
51475;SDS011;37554;50.362;7.568;2022-11-15T13:04:13;1.10;;;1.00;;
51475;SDS011;37554;50.362;7.568;2022-11-15T13:06:53;2.22;;;0.95;;
51475;SDS011;37554;50.362;7.568;2022-11-15T13:14:48;1.77;;;0.90;;
51475;SDS011;37554;50.362;7.568;2022-11-15T13:19:45;1.42;;;1.00;;
51475;SDS011;37554;50.362;7.568;2022-11-15T13:22:13;1.10;;;0.70;;
51475;SDS011;37554;50.362;7.568;2022-11-15T13:24:58;1.25;;;0.80;;
51475;SDS011;37554;50.362;7.568;2022-11-15T13:27:26;1.15;;;0.90;;
51475;SDS011;37554;50.362;7.568;2022-11-15T13:29:52;4.03;;;0.80;;
51475;SDS011;37554;50.362;7.568;2022-11-15T13:32:18;1.63;;;0.80;;
51475;SDS011;37554;50.362;7.568;2022-11-15T13:34:45;1.85;;;1.13;;
51475;SDS011;37554;50.362;7.568;2022-11-15T13:37:27;1.67;;;0.70;;
51475;SDS011;37554;50.362;7.568;2022-11-15T13:39:55;4.45;;;0.85;;
51475;SDS011;37554;50.362;7.568;2022-11-15T13:42:43;1.60;;;1.02;;
51475;SDS011;37554;50.362;7.568;2022-11-15T13:45:11;2.35;;;1.10;;
51475;SDS011;37554;50.362;7.568;2022-11-15T13:47:39;4.53;;;0.73;;
51475;SDS011;37554;50.362;7.568;2022-11-15T13:50:05;1.50;;;0.82;;
51475;SDS011;37554;50.362;7.568;2022-11-15T13:52:32;1.33;;;0.75;;
51475;SDS011;37554;50.362;7.568;2022-11-15T14:02:49;1.70;;;0.77;;
51475;SDS011;37554;50.362;7.568;2022-11-15T14:05:17;1.40;;;0.68;;
51475;SDS011;37554;50.362;7.568;2022-11-15T14:10:28;1.55;;;0.80;;
51475;SDS011;37554;50.362;7.568;2022-11-15T14:12:59;1.38;;;0.90;;
51475;SDS011;37554;50.362;7.568;2022-11-15T14:15:30;1.42;;;0.70;;
51475;SDS011;37554;50.362;7.568;2022-11-15T14:18:00;0.90;;;0.60;;
51475;SDS011;37554;50.362;7.568;2022-11-15T14:23:01;1.52;;;0.85;;
51475;SDS011;37554;50.362;7.568;2022-11-15T14:25:51;0.77;;;0.57;;
51475;SDS011;37554;50.362;7.568;2022-11-15T14:30:49;1.05;;;0.68;;
51475;SDS011;37554;50.362;7.568;2022-11-15T14:33:33;1.05;;;0.82;;
51475;SDS011;37554;50.362;7.568;2022-11-15T14:36:04;1.85;;;0.80;;
51475;SDS011;37554;50.362;7.568;2022-11-15T14:38:31;1.35;;;0.63;;
51475;SDS011;37554;50.362;7.568;2022-11-15T14:40:57;1.45;;;0.70;;
51475;SDS011;37554;50.362;7.568;2022-11-15T14:43:23;1.67;;;1.00;;
51475;SDS011;37554;50.362;7.568;2022-11-15T14:45:49;1.13;;;0.77;;
51475;SDS011;37554;50.362;7.568;2022-11-15T14:48:15;1.27;;;0.73;;
51475;SDS011;37554;50.362;7.568;2022-11-15T14:50:40;1.92;;;0.65;;
51475;SDS011;37554;50.362;7.568;2022-11-15T14:53:06;1.05;;;0.73;;
51475;SDS011;37554;50.362;7.568;2022-11-15T14:55:36;1.23;;;0.73;;
51475;SDS011;37554;50.362;7.568;2022-11-15T14:58:02;1.08;;;0.75;;
51475;SDS011;37554;50.362;7.568;2022-11-15T15:00:32;0.88;;;0.70;;
51475;SDS011;37554;50.362;7.568;2022-11-15T15:02:57;1.13;;;0.80;;
51475;SDS011;37554;50.362;7.568;2022-11-15T15:05:24;3.28;;;0.60;;
51475;SDS011;37554;50.362;7.568;2022-11-15T15:08:10;1.00;;;0.57;;
51475;SDS011;37554;50.362;7.568;2022-11-15T15:10:38;0.88;;;0.63;;
51475;SDS011;37554;50.362;7.568;2022-11-15T15:13:08;2.47;;;0.73;;
51475;SDS011;37554;50.362;7.568;2022-11-15T15:15:53;1.00;;;0.70;;
51475;SDS011;37554;50.362;7.568;2022-11-15T15:18:19;0.70;;;0.50;;
51475;SDS011;37554;50.362;7.568;2022-11-15T15:20:46;0.82;;;0.70;;
51475;SDS011;37554;50.362;7.568;2022-11-15T15:23:19;1.90;;;0.82;;
51475;SDS011;37554;50.362;7.568;2022-11-15T15:25:46;1.10;;;0.60;;
51475;SDS011;37554;50.362;7.568;2022-11-15T15:28:13;1.10;;;0.80;;
51475;SDS011;37554;50.362;7.568;2022-11-15T15:30:39;0.98;;;0.68;;
51475;SDS011;37554;50.362;7.568;2022-11-15T15:33:05;1.05;;;0.60;;
51475;SDS011;37554;50.362;7.568;2022-11-15T15:35:32;1.60;;;0.77;;
51475;SDS011;37554;50.362;7.568;2022-11-15T15:37:59;0.60;;;0.52;;
51475;SDS011;37554;50.362;7.568;2022-11-15T15:40:26;0.75;;;0.65;;
51475;SDS011;37554;50.362;7.568;2022-11-15T15:42:54;1.08;;;0.65;;
51475;SDS011;37554;50.362;7.568;2022-11-15T15:45:20;0.90;;;0.60;;
51475;SDS011;37554;50.362;7.568;2022-11-15T15:47:45;1.33;;;0.70;;
51475;SDS011;37554;50.362;7.568;2022-11-15T15:50:16;1.33;;;0.60;;
51475;SDS011;37554;50.362;7.568;2022-11-15T15:52:51;1.13;;;0.50;;
51475;SDS011;37554;50.362;7.568;2022-11-15T15:55:19;0.60;;;0.40;;
51475;SDS011;37554;50.362;7.568;2022-11-15T15:57:45;1.23;;;0.60;;
51475;SDS011;37554;50.362;7.568;2022-11-15T16:00:11;1.30;;;0.77;;
51475;SDS011;37554;50.362;7.568;2022-11-15T16:02:37;1.20;;;0.60;;
51475;SDS011;37554;50.362;7.568;2022-11-15T16:05:03;1.33;;;0.70;;
51475;SDS011;37554;50.362;7.568;2022-11-15T16:07:29;0.95;;;0.63;;
51475;SDS011;37554;50.362;7.568;2022-11-15T16:09:54;1.30;;;0.60;;
51475;SDS011;37554;50.362;7.568;2022-11-15T16:12:31;0.98;;;0.70;;
51475;SDS011;37554;50.362;7.568;2022-11-15T16:14:59;1.42;;;0.77;;
51475;SDS011;37554;50.362;7.568;2022-11-15T16:17:27;1.30;;;0.73;;
51475;SDS011;37554;50.362;7.568;2022-11-15T16:19:56;1.88;;;0.70;;
51475;SDS011;37554;50.362;7.568;2022-11-15T16:22:21;1.00;;;0.65;;
51475;SDS011;37554;50.362;7.568;2022-11-15T16:24:47;2.65;;;0.70;;
51475;SDS011;37554;50.362;7.568;2022-11-15T16:27:17;0.85;;;0.63;;
51475;SDS011;37554;50.362;7.568;2022-11-15T16:29:44;1.17;;;0.60;;
51475;SDS011;37554;50.362;7.568;2022-11-15T16:32:11;1.75;;;0.98;;
51475;SDS011;37554;50.362;7.568;2022-11-15T16:34:37;1.40;;;0.60;;
51475;SDS011;37554;50.362;7.568;2022-11-15T16:37:03;1.27;;;0.75;;
51475;SDS011;37554;50.362;7.568;2022-11-15T16:39:28;0.98;;;0.60;;
51475;SDS011;37554;50.362;7.568;2022-11-15T16:41:57;1.92;;;1.00;;
51475;SDS011;37554;50.362;7.568;2022-11-15T16:44:24;0.73;;;0.45;;
51475;SDS011;37554;50.362;7.568;2022-11-15T16:46:50;0.70;;;0.52;;
51475;SDS011;37554;50.362;7.568;2022-11-15T16:49:17;1.33;;;0.80;;
51475;SDS011;37554;50.362;7.568;2022-11-15T16:51:47;1.10;;;0.65;;
51475;SDS011;37554;50.362;7.568;2022-11-15T16:54:14;0.90;;;0.55;;
51475;SDS011;37554;50.362;7.568;2022-11-15T16:56:40;3.53;;;0.75;;
51475;SDS011;37554;50.362;7.568;2022-11-15T16:59:06;1.10;;;0.73;;
51475;SDS011;37554;50.362;7.568;2022-11-15T17:01:38;0.90;;;0.70;;
51475;SDS011;37554;50.362;7.568;2022-11-15T17:04:15;1.88;;;0.82;;
51475;SDS011;37554;50.362;7.568;2022-11-15T17:06:42;1.13;;;0.63;;
51475;SDS011;37554;50.362;7.568;2022-11-15T17:09:14;1.60;;;1.00;;
51475;SDS011;37554;50.362;7.568;2022-11-15T17:11:43;2.22;;;0.80;;